createdAt,value
2023-03-17T00:00:11.320Z,3.01
2023-03-17T00:04:11.299Z,2.77
2023-03-17T00:08:11.255Z,3.27
2023-03-17T00:12:11.247Z,3.12
2023-03-17T00:16:18.240Z,3.02
2023-03-17T00:20:11.147Z,3.04
2023-03-17T00:24:11.903Z,2.80
2023-03-17T00:28:11.066Z,2.95
2023-03-17T00:32:11.032Z,2.60
2023-03-17T00:36:10.995Z,2.61
2023-03-17T00:40:18.599Z,2.74
2023-03-17T00:44:11.145Z,2.78
2023-03-17T00:48:18.647Z,2.58
2023-03-17T00:52:11.038Z,2.36
2023-03-17T00:56:11.014Z,2.28
2023-03-17T01:00:10.983Z,2.85
2023-03-17T01:04:18.136Z,2.75
2023-03-17T01:08:10.886Z,2.99
2023-03-17T01:12:10.845Z,2.41
2023-03-17T01:16:10.931Z,2.82
2023-03-17T01:20:10.767Z,2.65
2023-03-17T01:24:18.153Z,2.85
2023-03-17T01:28:10.685Z,2.74
2023-03-17T01:32:10.703Z,3.01
2023-03-17T01:36:10.697Z,2.33
2023-03-17T01:40:10.592Z,3.23
2023-03-17T01:44:19.184Z,2.88
2023-03-17T01:48:10.559Z,2.85
2023-03-17T01:52:10.505Z,2.96
2023-03-17T01:56:10.498Z,2.69
2023-03-17T02:00:10.418Z,2.63
2023-03-17T02:04:10.491Z,3.01
2023-03-17T02:08:10.389Z,2.46
2023-03-17T02:12:10.357Z,2.48
2023-03-17T02:16:10.292Z,2.60
2023-03-17T02:20:10.227Z,2.71
2023-03-17T02:24:10.240Z,2.38
2023-03-17T02:28:10.170Z,2.68
2023-03-17T02:32:10.143Z,2.45
2023-03-17T02:36:10.208Z,2.43
2023-03-17T02:40:10.190Z,2.32
2023-03-17T02:44:10.385Z,2.34
2023-03-17T02:48:10.568Z,2.38
2023-03-17T02:52:10.689Z,2.73
2023-03-17T02:56:10.866Z,2.14
2023-03-17T03:00:11.018Z,2.37
2023-03-17T03:04:11.227Z,2.69
2023-03-17T03:08:11.424Z,1.69
2023-03-17T03:12:11.537Z,2.20
2023-03-17T03:16:11.720Z,2.58
2023-03-17T03:20:11.905Z,2.48
2023-03-17T03:24:12.028Z,2.42
2023-03-17T03:28:12.182Z,2.20
2023-03-17T03:32:12.368Z,2.53
2023-03-17T03:36:12.584Z,2.37
2023-03-17T03:40:12.706Z,2.46
2023-03-17T03:44:12.829Z,2.47
2023-03-17T03:48:13.026Z,2.05
2023-03-17T03:52:13.177Z,2.48
2023-03-17T03:56:13.376Z,2.54
2023-03-17T04:00:13.554Z,2.72
2023-03-17T04:04:13.711Z,2.84
2023-03-17T04:08:13.914Z,2.32
2023-03-17T04:12:14.209Z,2.35
2023-03-17T04:16:14.239Z,2.17
2023-03-17T04:20:14.409Z,2.35
2023-03-17T04:24:14.596Z,2.31
2023-03-17T04:28:15.245Z,2.27
2023-03-17T04:32:15.234Z,2.00
2023-03-17T04:36:15.189Z,2.76
2023-03-17T04:40:15.371Z,2.36
2023-03-17T04:44:15.553Z,2.26
2023-03-17T04:48:15.723Z,2.01
2023-03-17T04:52:15.959Z,2.24
2023-03-17T04:56:16.147Z,2.15
2023-03-17T05:00:16.375Z,1.99
2023-03-17T05:04:28.903Z,1.99
2023-03-17T05:08:17.512Z,2.22
2023-03-17T05:12:16.507Z,2.18
2023-03-17T05:16:16.523Z,2.17
2023-03-17T05:20:16.664Z,1.86
2023-03-17T05:24:16.851Z,2.22
2023-03-17T05:28:17.016Z,1.94
2023-03-17T05:32:17.247Z,2.26
2023-03-17T05:36:17.364Z,2.16
2023-03-17T05:40:17.541Z,2.34
2023-03-17T05:44:17.749Z,1.90
2023-03-17T05:48:17.952Z,2.09
2023-03-17T05:52:18.096Z,1.93
2023-03-17T05:56:18.320Z,2.18
2023-03-17T06:00:18.552Z,1.89
2023-03-17T06:04:18.719Z,2.25
2023-03-17T06:08:18.899Z,2.11
2023-03-17T06:12:19.123Z,2.46
2023-03-17T06:16:19.205Z,2.34
2023-03-17T06:20:19.238Z,2.88
2023-03-17T06:24:19.343Z,2.35
2023-03-17T06:28:19.413Z,2.51
2023-03-17T06:32:21.049Z,2.25
2023-03-17T06:36:19.642Z,2.92
2023-03-17T06:40:19.812Z,3.14
2023-03-17T06:44:19.916Z,2.81
2023-03-17T06:48:19.996Z,2.87
2023-03-17T06:52:20.027Z,3.00
2023-03-17T06:56:29.530Z,3.42
2023-03-17T07:00:21.233Z,9.33
2023-03-17T07:04:20.056Z,5.69
2023-03-17T07:08:20.066Z,5.63
2023-03-17T07:12:20.192Z,7.00
2023-03-17T07:16:20.244Z,7.91
2023-03-17T07:20:20.308Z,7.16
2023-03-17T07:24:20.373Z,7.02
2023-03-17T07:28:20.492Z,5.80
2023-03-17T07:32:20.548Z,7.68
2023-03-17T07:36:20.589Z,6.69
2023-03-17T07:40:20.648Z,6.05
2023-03-17T07:44:20.706Z,5.42
2023-03-17T07:48:20.842Z,6.25
2023-03-17T07:52:20.887Z,5.43
2023-03-17T07:56:20.938Z,6.01
2023-03-17T08:00:21.127Z,5.53
2023-03-17T08:04:21.167Z,5.76
2023-03-17T08:08:21.337Z,5.44
2023-03-17T08:12:21.269Z,5.00
2023-03-17T08:16:21.310Z,5.83
2023-03-17T08:20:21.221Z,4.27
2023-03-17T08:24:21.308Z,4.17
2023-03-17T08:28:21.457Z,3.98
2023-03-17T08:32:21.473Z,3.54
2023-03-17T08:36:21.547Z,4.15
2023-03-17T08:40:21.598Z,3.83
2023-03-17T08:44:21.622Z,4.11
2023-03-17T08:48:21.783Z,3.55
2023-03-17T08:52:21.789Z,3.17
2023-03-17T08:56:21.946Z,3.62
2023-03-17T09:00:22.066Z,3.90
2023-03-17T09:04:21.990Z,2.73
2023-03-17T09:10:49.598Z,2.04
2023-03-17T09:14:49.533Z,2.57
2023-03-17T09:18:49.513Z,2.29
2023-03-17T09:22:49.650Z,3.08
2023-03-17T09:26:49.566Z,2.41
2023-03-17T09:30:49.454Z,2.65
2023-03-17T09:34:51.520Z,2.40
2023-03-17T09:38:49.344Z,2.23
2023-03-17T09:42:49.370Z,2.69
2023-03-17T09:46:49.595Z,3.56
2023-03-17T09:50:49.673Z,6.73
2023-03-17T09:54:49.812Z,7.16
2023-03-17T09:58:51.346Z,59.53
2023-03-17T10:02:49.965Z,37.28
2023-03-17T10:06:50.038Z,30.52
2023-03-17T10:10:50.082Z,9.54
2023-03-17T10:14:51.357Z,6.08
2023-03-17T10:18:50.317Z,3.98
2023-03-17T10:22:50.453Z,2.62
2023-03-17T10:26:50.527Z,1.79
2023-03-17T10:30:50.659Z,2.09
2023-03-17T10:34:50.771Z,1.60
2023-03-17T10:38:50.982Z,1.45
2023-03-17T10:42:51.145Z,1.54
2023-03-17T10:46:51.624Z,2.32
2023-03-17T10:50:52.884Z,1.86
2023-03-17T10:54:51.558Z,1.76
2023-03-17T10:58:51.745Z,2.19
2023-03-17T11:02:51.757Z,3.33
2023-03-17T11:06:51.822Z,1.93
2023-03-17T11:10:52.334Z,2.42
2023-03-17T11:14:51.956Z,1.91
2023-03-17T11:18:52.010Z,1.63
2023-03-17T11:22:52.097Z,1.88
2023-03-17T11:26:52.133Z,1.76
2023-03-17T11:30:52.217Z,1.83
2023-03-17T11:34:52.292Z,1.85
2023-03-17T11:38:52.312Z,1.43
2023-03-17T11:42:52.376Z,1.28
2023-03-17T11:46:52.546Z,1.33
2023-03-17T11:50:52.563Z,2.06
2023-03-17T11:54:54.374Z,1.46
2023-03-17T11:58:52.565Z,2.11
2023-03-17T12:02:52.528Z,1.52
2023-03-17T12:06:52.488Z,1.33
2023-03-17T12:10:52.437Z,1.48
2023-03-17T12:14:52.394Z,1.49
2023-03-17T12:18:52.386Z,1.36
2023-03-17T12:22:52.310Z,1.38
2023-03-17T12:26:52.383Z,1.47
2023-03-17T12:30:52.312Z,1.51
2023-03-17T12:34:52.207Z,1.38
2023-03-17T12:38:52.216Z,2.42
2023-03-17T12:42:52.133Z,3.07
2023-03-17T12:46:52.105Z,3.67
2023-03-17T12:50:52.063Z,3.22
2023-03-17T12:54:52.017Z,2.53
2023-03-17T12:58:51.987Z,4.56
2023-03-17T13:02:52.001Z,5.04
2023-03-17T13:06:51.920Z,3.83
2023-03-17T13:10:51.922Z,4.11
2023-03-17T13:14:51.856Z,68.82
2023-03-17T13:18:51.818Z,40.93
2023-03-17T13:22:51.800Z,34.60
2023-03-17T13:26:54.327Z,29.46
2023-03-17T13:30:51.680Z,31.42
2023-03-17T13:34:51.675Z,27.24
2023-03-17T13:39:05.105Z,28.53
2023-03-17T13:42:52.599Z,26.14
2023-03-17T13:46:51.616Z,27.37
2023-03-17T13:50:51.535Z,25.20
2023-03-17T13:54:51.526Z,27.15
2023-03-17T13:58:51.434Z,22.96
2023-03-17T14:02:58.910Z,19.35
2023-03-17T14:06:51.493Z,17.58
2023-03-17T14:10:51.458Z,19.15
2023-03-17T14:14:51.415Z,19.44
2023-03-17T14:18:51.369Z,21.33
2023-03-17T14:22:58.453Z,15.80
2023-03-17T14:26:51.315Z,15.04
2023-03-17T14:30:51.300Z,15.79
2023-03-17T14:34:51.216Z,18.09
2023-03-17T14:38:51.194Z,16.91
2023-03-17T14:42:51.171Z,17.86
2023-03-17T14:46:51.104Z,15.29
2023-03-17T14:50:51.101Z,11.15
2023-03-17T14:54:51.025Z,12.16
2023-03-17T14:58:51.014Z,15.80
2023-03-17T15:02:51.101Z,14.06
2023-03-17T15:06:51.194Z,14.68
2023-03-17T15:10:51.241Z,14.60
2023-03-17T15:14:51.315Z,11.96
2023-03-17T15:18:51.422Z,12.03
2023-03-17T15:22:51.527Z,15.76
2023-03-17T15:26:51.650Z,11.60
2023-03-17T15:30:52.000Z,12.33
2023-03-17T15:34:51.821Z,10.53
2023-03-17T15:38:52.006Z,11.21
2023-03-17T15:42:52.011Z,8.41
2023-03-17T15:46:52.103Z,10.35
2023-03-17T15:50:52.262Z,10.57
2023-03-17T15:54:52.322Z,8.09
2023-03-17T15:58:52.615Z,9.98
2023-03-17T16:02:52.541Z,10.55
2023-03-17T16:06:52.676Z,9.30
2023-03-17T16:10:52.768Z,8.11
2023-03-17T16:14:52.867Z,6.60
2023-03-17T16:18:52.995Z,6.61
2023-03-17T16:22:53.043Z,7.96
2023-03-17T16:26:53.146Z,6.01
2023-03-17T16:30:53.323Z,7.27
2023-03-17T16:34:53.442Z,6.09
2023-03-17T16:38:53.519Z,9.11
2023-03-17T16:42:53.657Z,6.42
2023-03-17T16:46:53.784Z,4.43
2023-03-17T16:50:53.911Z,5.99
2023-03-17T16:54:54.044Z,4.51
2023-03-17T16:58:54.108Z,5.22
2023-03-17T17:02:54.521Z,6.82
2023-03-17T17:06:54.315Z,6.69
2023-03-17T17:10:54.399Z,5.44
2023-03-17T17:14:54.510Z,5.58
2023-03-17T17:18:54.632Z,4.49
2023-03-17T17:22:54.763Z,4.81
2023-03-17T17:26:54.845Z,5.81
2023-03-17T17:30:54.965Z,5.90
2023-03-17T17:34:55.102Z,4.54
2023-03-17T17:38:55.219Z,4.65
2023-03-17T17:43:02.512Z,5.97
2023-03-17T17:46:55.369Z,6.41
2023-03-17T17:50:55.248Z,3.07
2023-03-17T17:54:55.227Z,3.39
2023-03-17T17:58:55.201Z,3.56
2023-03-17T18:02:55.119Z,4.40
2023-03-17T18:06:55.087Z,4.43
2023-03-17T18:10:55.074Z,3.35
2023-03-17T18:15:02.571Z,3.02
2023-03-17T18:18:55.026Z,4.10
2023-03-17T18:22:55.005Z,3.21
2023-03-17T18:26:54.981Z,4.93
2023-03-17T18:30:54.948Z,3.09
2023-03-17T18:35:02.041Z,3.17
2023-03-17T18:38:54.924Z,3.30
2023-03-17T18:42:54.833Z,2.80
2023-03-17T18:46:54.801Z,2.87
2023-03-17T18:50:54.753Z,2.40
2023-03-17T18:54:54.780Z,2.42
2023-03-17T18:58:54.693Z,1.43
2023-03-17T19:02:54.725Z,2.33
2023-03-17T19:06:54.667Z,2.89
2023-03-17T19:10:54.733Z,2.60
2023-03-17T19:14:54.886Z,2.00
2023-03-17T19:18:54.977Z,2.26
2023-03-17T19:22:55.058Z,2.21
2023-03-17T19:26:55.157Z,2.27
2023-03-17T19:30:55.256Z,1.80
2023-03-17T19:34:55.388Z,2.63
2023-03-17T19:38:55.447Z,2.74
2023-03-17T19:42:55.583Z,2.23
2023-03-17T19:46:55.684Z,1.89
2023-03-17T19:50:55.768Z,1.68
2023-03-17T19:54:55.898Z,1.99
2023-03-17T19:58:55.979Z,2.51
2023-03-17T20:02:56.117Z,1.95
2023-03-17T20:06:56.232Z,1.54
2023-03-17T20:10:56.352Z,1.44
2023-03-17T20:14:56.442Z,1.77
2023-03-17T20:18:56.580Z,1.68
2023-03-17T20:22:56.642Z,1.55
2023-03-17T20:26:56.782Z,1.41
2023-03-17T20:30:56.905Z,1.51
2023-03-17T20:34:56.955Z,1.62
2023-03-17T20:38:57.076Z,1.31
2023-03-17T20:42:57.165Z,1.79
2023-03-17T20:46:57.257Z,1.80
2023-03-17T20:50:57.350Z,1.35
2023-03-17T20:54:57.443Z,1.18
2023-03-17T20:58:57.577Z,1.21
2023-03-17T21:02:57.706Z,1.78
2023-03-17T21:06:57.837Z,1.24
2023-03-17T21:10:57.916Z,1.32
2023-03-17T21:14:58.034Z,1.22
2023-03-17T21:18:58.182Z,1.38
2023-03-17T21:22:58.305Z,1.51
2023-03-17T21:26:58.374Z,1.44
2023-03-17T21:30:58.504Z,1.30
2023-03-17T21:34:58.644Z,1.66
2023-03-17T21:38:58.779Z,1.42
2023-03-17T21:42:59.129Z,1.68
2023-03-17T21:46:59.028Z,1.38
2023-03-17T21:50:59.174Z,1.37
2023-03-17T21:54:59.309Z,1.92
2023-03-17T21:58:59.460Z,2.65
2023-03-17T22:03:07.176Z,1.40
2023-03-17T22:06:59.551Z,1.45
2023-03-17T22:10:59.524Z,1.46
2023-03-17T22:14:59.458Z,1.86
2023-03-17T22:18:59.477Z,1.66
2023-03-17T22:22:59.427Z,1.79
2023-03-17T22:26:59.549Z,2.06
2023-03-17T22:30:59.680Z,2.02
2023-03-17T22:34:59.791Z,1.39
2023-03-17T22:38:59.920Z,1.78
2023-03-17T22:43:00.037Z,1.64
2023-03-17T22:47:00.203Z,2.03
2023-03-17T22:51:00.334Z,1.83
2023-03-17T22:55:00.476Z,1.77
2023-03-17T22:59:00.666Z,1.65
2023-03-17T23:03:00.761Z,2.16
2023-03-17T23:07:00.936Z,1.64
2023-03-17T23:11:01.108Z,2.04
2023-03-17T23:15:01.212Z,2.02
2023-03-17T23:19:01.288Z,2.00
2023-03-17T23:23:01.460Z,1.91
2023-03-17T23:27:01.609Z,1.67
2023-03-17T23:31:01.742Z,2.09
2023-03-17T23:35:01.894Z,1.73
2023-03-17T23:39:02.004Z,2.50
2023-03-17T23:43:02.141Z,2.67
2023-03-17T23:47:09.288Z,3.65
2023-03-17T23:51:02.230Z,4.32
2023-03-17T23:55:02.201Z,4.67
2023-03-17T23:59:02.208Z,5.58
